Time;durP1;ratioP1;P1;durP2;ratioP2;P2;SDS_P1;SDS_P2;PMS_P1;PMS_P2;Temp;Humidity;BMP_temperature;BMP_pressure;BME280_temperature;BME280_humidity;BME280_pressure;Samples;Min_cycle;Max_cycle;Signal;HPM_P1;HPM_P2
2021/04/30 00:00:06;;;;;;;;;;;;;;;21.30;31.99;101219.91;2164648;40;114074;-57
2021/04/30 00:01:37;;;;;;;;;;;;;;;21.30;31.99;101223.50;2167589;40;113969;-56
2021/04/30 00:03:08;;;;;;;;;;;;;;;21.28;32.06;101220.19;2168300;40;114340;-58
2021/04/30 00:04:40;;;;;;;;;;;;;;;21.28;31.82;101216.53;2166597;40;115018;-56
2021/04/30 00:06:11;;;;;;;;;;;;;;;21.27;32.24;101215.69;2166185;40;114955;-56
2021/04/30 00:07:43;;;;;;;;;;;;;;;21.25;32.11;101211.53;2166722;40;114993;-58
2021/04/30 00:09:15;;;;;;;;;;;;;;;21.24;32.04;101209.88;2166944;40;115396;-55
2021/04/30 00:10:46;;;;;;;;;;;;;;;21.23;32.32;101214.66;2165874;40;114629;-57
2021/04/30 00:12:19;;;;;;;;;;;;;;;21.22;32.25;101217.75;2167228;40;114933;-56
2021/04/30 00:13:50;;;;;;;;;;;;;;;21.22;32.35;101212.13;2163708;40;114806;-55
2021/04/30 00:15:22;;;;;;;;;;;;;;;21.22;32.44;101209.31;2166931;40;114855;-56
2021/04/30 00:16:53;;;;;;;;;;;;;;;21.20;32.56;101208.81;2168939;40;115057;-57
2021/04/30 00:18:25;;;;;;;;;;;;;;;21.22;32.12;101209.31;2164887;40;115096;-58
2021/04/30 00:19:56;;;;;;;;;;;;;;;21.20;32.34;101217.25;2166300;40;114968;-60
2021/04/30 00:21:29;;;;;;;;;;;;;;;21.21;31.99;101216.13;2165035;40;115051;-55
2021/04/30 00:23:00;;;;;;;;;;;;;;;21.20;32.43;101209.66;2167455;40;114919;-54
2021/04/30 00:24:32;;;;;;;;;;;;;;;21.19;32.07;101212.75;2169269;40;114849;-56
2021/04/30 00:26:05;;;;;;;;;;;;;;;21.17;32.73;101206.59;2173032;40;115716;-58
2021/04/30 00:27:37;;;;;;;;;;;;;;;21.15;32.40;101206.94;2169458;40;116188;-57
2021/04/30 00:29:10;;;;;;;;;;;;;;;21.16;32.84;101202.16;2167406;40;115658;-56
2021/04/30 00:30:42;;;;;;;;;;;;;;;21.17;32.66;101210.25;2166980;40;116235;-56
2021/04/30 00:32:13;;;;;;;;;;;;;;;21.16;32.25;101202.97;2166890;40;115477;-54
2021/04/30 00:33:45;;;;;;;;;;;;;;;21.15;32.58;101206.09;2172151;40;115887;-57
2021/04/30 00:35:17;;;;;;;;;;;;;;;21.16;32.82;101200.19;2162178;40;115524;-59
2021/04/30 00:36:48;;;;;;;;;;;;;;;21.13;32.40;101197.94;2163580;40;115458;-55
2021/04/30 00:38:20;;;;;;;;;;;;;;;21.13;32.70;101199.94;2168973;40;115704;-56
2021/04/30 00:39:52;;;;;;;;;;;;;;;21.12;32.59;101207.47;2166566;40;116003;-58
2021/04/30 00:41:24;;;;;;;;;;;;;;;21.10;32.86;101201.34;2170383;40;115664;-57
2021/04/30 00:43:01;;;;;;;;;;;;;;;21.11;32.64;101203.03;2167622;40;115538;-56
2021/04/30 00:44:32;;;;;;;;;;;;;;;21.10;32.61;101206.13;2161171;40;115222;-57
2021/04/30 00:46:05;;;;;;;;;;;;;;;21.09;32.93;101210.09;2165341;40;116002;-55
2021/04/30 00:47:37;;;;;;;;;;;;;;;21.10;32.62;101203.31;2169514;40;115284;-56
2021/04/30 00:49:08;;;;;;;;;;;;;;;21.10;32.79;101201.34;2167642;40;113955;-58
2021/04/30 00:50:40;;;;;;;;;;;;;;;21.11;32.82;101202.19;2167685;40;114028;-55
2021/04/30 00:52:11;;;;;;;;;;;;;;;21.05;32.99;101204.25;2168177;40;113869;-57
2021/04/30 00:53:42;;;;;;;;;;;;;;;21.06;32.74;101203.09;2166352;40;113994;-55
2021/04/30 00:55:15;;;;;;;;;;;;;;;21.07;32.79;101204.78;2171826;40;114045;-56
2021/04/30 00:56:46;;;;;;;;;;;;;;;21.06;32.74;101205.91;2162338;40;113649;-55
2021/04/30 00:58:19;;;;;;;;;;;;;;;21.05;32.89;101207.06;2165587;40;114123;-57
2021/04/30 00:59:52;;;;;;;;;;;;;;;21.04;33.08;101205.38;2167973;40;113587;-56
2021/04/30 01:01:23;;;;;;;;;;;;;;;21.03;33.07;101203.69;2161197;40;113740;-58
2021/04/30 01:02:55;;;;;;;;;;;;;;;21.02;32.83;101209.66;2165906;40;113925;-58
2021/04/30 01:04:26;;;;;;;;;;;;;;;21.02;32.87;101207.69;2167803;40;113679;-58
2021/04/30 01:05:58;;;;;;;;;;;;;;;21.01;32.89;101214.44;2167819;40;113766;-57
2021/04/30 01:07:30;;;;;;;;;;;;;;;21.00;33.01;101207.13;2166805;40;114064;-55
2021/04/30 01:09:03;;;;;;;;;;;;;;;21.01;33.04;101211.63;2169925;40;113595;-57
2021/04/30 01:10:35;;;;;;;;;;;;;;;20.99;33.28;101211.06;2164481;40;114869;-56
2021/04/30 01:12:08;;;;;;;;;;;;;;;20.99;32.85;101210.25;2167760;40;114912;-58
2021/04/30 01:13:40;;;;;;;;;;;;;;;20.98;33.10;101208.59;2166700;40;114039;-57
2021/04/30 01:15:12;;;;;;;;;;;;;;;20.98;33.16;101211.41;2168362;40;114954;-56
2021/04/30 01:16:43;;;;;;;;;;;;;;;20.97;33.10;101215.34;2167526;40;115557;-56
2021/04/30 01:18:14;;;;;;;;;;;;;;;20.97;32.83;101210.56;2168386;40;115064;-55
2021/04/30 01:19:47;;;;;;;;;;;;;;;20.95;33.18;101212.00;2163963;40;114957;-55
2021/04/30 01:21:23;;;;;;;;;;;;;;;20.95;32.92;101209.19;2163628;40;115243;-53
2021/04/30 01:22:55;;;;;;;;;;;;;;;20.96;33.42;101216.47;2167785;40;115007;-56
2021/04/30 01:24:26;;;;;;;;;;;;;;;20.94;33.20;101211.16;2168095;40;114918;-53
2021/04/30 01:25:57;;;;;;;;;;;;;;;20.96;33.03;101205.25;2160851;40;115075;-55
2021/04/30 01:27:29;;;;;;;;;;;;;;;20.93;33.04;101215.13;2161691;40;116106;-54
2021/04/30 01:29:00;;;;;;;;;;;;;;;20.94;32.92;101218.78;2161345;40;114859;-54
2021/04/30 01:30:33;;;;;;;;;;;;;;;20.90;33.24;101214.88;2169815;40;114921;-55
2021/04/30 01:32:05;;;;;;;;;;;;;;;20.92;33.45;101215.41;2167746;40;115255;-55
2021/04/30 01:33:38;;;;;;;;;;;;;;;20.91;33.37;101211.78;2168267;40;116155;-56
2021/04/30 01:35:10;;;;;;;;;;;;;;;20.90;33.37;101218.53;2166977;40;116170;-56
2021/04/30 01:36:42;;;;;;;;;;;;;;;20.89;33.21;101213.22;2166508;40;115785;-57
2021/04/30 01:38:13;;;;;;;;;;;;;;;20.88;33.42;101217.16;2169046;40;115587;-53
2021/04/30 01:39:45;;;;;;;;;;;;;;;20.87;33.62;101219.13;2168358;40;116262;-55
2021/04/30 01:41:19;;;;;;;;;;;;;;;20.85;33.43;101210.16;2169826;40;115574;-55
2021/04/30 01:42:54;;;;;;;;;;;;;;;20.84;33.84;101212.16;2166529;40;115597;-55
2021/04/30 01:44:26;;;;;;;;;;;;;;;20.84;33.38;101214.97;2168562;40;115549;-57
2021/04/30 01:46:03;;;;;;;;;;;;;;;20.84;33.62;101212.16;2165929;40;115854;-57
2021/04/30 01:47:35;;;;;;;;;;;;;;;20.82;33.73;101214.44;2159886;40;115475;-54
2021/04/30 01:49:08;;;;;;;;;;;;;;;20.83;33.88;101212.47;2164939;40;115509;-54
2021/04/30 01:50:42;;;;;;;;;;;;;;;20.84;33.78;101217.78;2165075;40;115582;-55
2021/04/30 01:52:13;;;;;;;;;;;;;;;20.83;33.45;101216.13;2168240;40;115555;-56
2021/04/30 01:53:45;;;;;;;;;;;;;;;20.80;33.61;101221.50;2165710;40;114036;-55
2021/04/30 01:55:17;;;;;;;;;;;;;;;20.81;33.64;101217.53;2171629;40;114012;-56
2021/04/30 01:56:48;;;;;;;;;;;;;;;20.80;33.89;101230.75;2167965;40;114159;-56
2021/04/30 01:58:20;;;;;;;;;;;;;;;20.79;33.76;101223.47;2168616;40;114307;-55
2021/04/30 01:59:54;;;;;;;;;;;;;;;20.80;33.58;101230.75;2168158;40;113850;-56
2021/04/30 02:01:26;;;;;;;;;;;;;;;20.78;33.53;101218.16;2168119;40;113568;-55
2021/04/30 02:02:58;;;;;;;;;;;;;;;20.79;33.54;101219.84;2168731;40;113964;-54
2021/04/30 02:04:30;;;;;;;;;;;;;;;20.78;33.89;101229.38;2168184;40;113864;-53
2021/04/30 02:06:01;;;;;;;;;;;;;;;20.76;33.71;101232.50;2167813;40;113638;-57
2021/04/30 02:07:33;;;;;;;;;;;;;;;20.78;33.58;101230.22;2167644;40;114865;-56
2021/04/30 02:09:06;;;;;;;;;;;;;;;20.77;34.11;101234.16;2168018;40;113973;-54
2021/04/30 02:10:38;;;;;;;;;;;;;;;20.77;33.99;101230.53;2165898;40;113727;-56
2021/04/30 02:12:15;;;;;;;;;;;;;;;20.75;33.86;101225.22;2171941;40;113943;-54
2021/04/30 02:13:46;;;;;;;;;;;;;;;20.74;33.90;101223.56;2167143;40;113820;-58
2021/04/30 02:15:19;;;;;;;;;;;;;;;20.74;33.91;101223.56;2171064;40;113956;-55
2021/04/30 02:16:50;;;;;;;;;;;;;;;20.73;33.96;101233.09;2166239;40;114879;-56
2021/04/30 02:18:23;;;;;;;;;;;;;;;20.73;33.88;101232.25;2160984;40;115953;-58
2021/04/30 02:19:54;;;;;;;;;;;;;;;20.72;33.71;101230.59;2167673;40;114976;-58
2021/04/30 02:21:26;;;;;;;;;;;;;;;20.71;33.77;101232.59;2168561;40;114965;-56
2021/04/30 02:22:58;;;;;;;;;;;;;;;20.70;33.63;101236.53;2173999;40;114976;-56
2021/04/30 02:24:29;;;;;;;;;;;;;;;20.70;33.96;101232.88;2169769;40;114904;-55
2021/04/30 02:26:01;;;;;;;;;;;;;;;20.69;34.14;101226.44;2173515;40;115902;-58
2021/04/30 02:27:34;;;;;;;;;;;;;;;20.70;34.17;101228.09;2161764;40;115334;-54
2021/04/30 02:29:05;;;;;;;;;;;;;;;20.68;33.86;101232.34;2166469;40;115012;-55
2021/04/30 02:30:38;;;;;;;;;;;;;;;20.68;34.30;101230.38;2163138;40;115279;-58
2021/04/30 02:32:10;;;;;;;;;;;;;;;20.67;34.20;101230.69;2164685;40;115589;-57
2021/04/30 02:33:41;;;;;;;;;;;;;;;20.65;34.04;101230.97;2168574;40;114904;-58
2021/04/30 02:35:16;;;;;;;;;;;;;;;20.67;33.94;101231.50;2167995;40;114896;-55
2021/04/30 02:36:48;;;;;;;;;;;;;;;20.66;34.22;101229.84;2174652;40;115693;-54
2021/04/30 02:38:20;;;;;;;;;;;;;;;20.65;34.31;101225.38;2164685;40;115631;-55
2021/04/30 02:39:51;;;;;;;;;;;;;;;20.66;33.88;101223.41;2165250;40;115151;-55
2021/04/30 02:41:23;;;;;;;;;;;;;;;20.64;34.31;101223.69;2168341;40;116168;-56
2021/04/30 02:42:57;;;;;;;;;;;;;;;20.65;34.13;101224.53;2166167;40;115691;-58
2021/04/30 02:44:28;;;;;;;;;;;;;;;20.64;34.28;101229.31;2167365;40;115654;-58
2021/04/30 02:46:02;;;;;;;;;;;;;;;20.63;34.14;101218.38;2168716;40;116019;-57
2021/04/30 02:47:34;;;;;;;;;;;;;;;20.62;34.27;101227.94;2167896;40;115690;-56
2021/04/30 02:49:06;;;;;;;;;;;;;;;20.61;34.32;101227.13;2167850;40;115486;-58
2021/04/30 02:50:37;;;;;;;;;;;;;;;20.60;34.16;101221.78;2167859;40;116101;-55
2021/04/30 02:52:10;;;;;;;;;;;;;;;20.59;34.17;101232.19;2167578;40;115515;-54
2021/04/30 02:53:42;;;;;;;;;;;;;;;20.58;34.00;101221.28;2164761;40;115785;-55
2021/04/30 02:55:15;;;;;;;;;;;;;;;20.59;34.50;101220.09;2162786;40;114565;-56
2021/04/30 02:56:46;;;;;;;;;;;;;;;20.58;34.20;101233.31;2170466;40;115613;-54
2021/04/30 02:58:18;;;;;;;;;;;;;;;20.58;34.50;101227.69;2172489;40;116283;-58
2021/04/30 02:59:51;;;;;;;;;;;;;;;20.59;34.09;101229.38;2168460;40;114298;-54
2021/04/30 03:01:23;;;;;;;;;;;;;;;20.59;34.41;101231.34;2168062;40;113759;-57
2021/04/30 03:02:56;;;;;;;;;;;;;;;20.57;34.33;101228.84;2164390;40;114083;-57
2021/04/30 03:04:28;;;;;;;;;;;;;;;20.54;34.59;101223.81;2161409;40;113907;-56
2021/04/30 03:05:59;;;;;;;;;;;;;;;20.55;34.51;101224.66;2165233;40;114117;-55
2021/04/30 03:07:31;;;;;;;;;;;;;;;20.53;34.49;101216.56;2172555;40;114172;-55
2021/04/30 03:09:03;;;;;;;;;;;;;;;20.54;34.53;101220.19;2169946;40;113773;-56
2021/04/30 03:10:35;;;;;;;;;;;;;;;20.54;34.63;101220.19;2172317;40;114224;-57
2021/04/30 03:12:07;;;;;;;;;;;;;;;20.52;34.72;101220.50;2163156;40;113899;-56
2021/04/30 03:13:40;;;;;;;;;;;;;;;20.53;34.52;101222.19;2166332;40;113670;-57
2021/04/30 03:15:13;;;;;;;;;;;;;;;20.49;34.77;101221.09;2168358;40;114281;-56
2021/04/30 03:16:44;;;;;;;;;;;;;;;20.50;34.65;101217.16;2168546;40;114056;-57
2021/04/30 03:18:16;;;;;;;;;;;;;;;20.51;34.62;101218.81;2167694;40;114112;-54
2021/04/30 03:19:47;;;;;;;;;;;;;;;20.49;34.81;101214.66;2170673;40;113721;-55
2021/04/30 03:21:19;;;;;;;;;;;;;;;20.49;34.71;101211.84;2164427;40;114884;-56
2021/04/30 03:22:50;;;;;;;;;;;;;;;20.49;34.83;101214.66;2167869;40;115548;-54
2021/04/30 03:24:22;;;;;;;;;;;;;;;20.46;34.89;101210.47;2166695;40;115071;-57
2021/04/30 03:25:53;;;;;;;;;;;;;;;20.47;35.05;101216.91;2167369;40;115325;-56
2021/04/30 03:27:26;;;;;;;;;;;;;;;20.45;34.71;101214.41;2158924;40;115070;-55
2021/04/30 03:28:58;;;;;;;;;;;;;;;20.46;35.01;101213.28;2161286;40;114970;-56
2021/04/30 03:30:29;;;;;;;;;;;;;;;20.46;34.83;101206.81;2172273;40;114959;-55
2021/04/30 03:32:02;;;;;;;;;;;;;;;20.46;34.64;101207.66;2163947;40;115074;-56
2021/04/30 03:33:34;;;;;;;;;;;;;;;20.45;34.65;101216.38;2166138;40;115084;-55
2021/04/30 03:35:07;;;;;;;;;;;;;;;20.42;34.89;101206.59;2168186;40;115583;-58
2021/04/30 03:36:38;;;;;;;;;;;;;;;20.41;35.26;101200.16;2168586;40;115119;-54
2021/04/30 03:38:10;;;;;;;;;;;;;;;20.41;34.93;101202.97;2163552;40;114088;-57
2021/04/30 03:39:41;;;;;;;;;;;;;;;20.44;34.76;101206.31;2168781;40;114849;-56
2021/04/30 03:41:13;;;;;;;;;;;;;;;20.42;34.76;101204.63;2168924;40;115259;-58
2021/04/30 03:42:44;;;;;;;;;;;;;;;20.39;34.51;101202.44;2167366;40;115597;-55
2021/04/30 03:44:18;;;;;;;;;;;;;;;20.39;34.85;101205.25;2165372;40;114224;-62
2021/04/30 03:45:50;;;;;;;;;;;;;;;20.39;34.86;101207.22;2169804;40;115628;-58
2021/04/30 03:47:23;;;;;;;;;;;;;;;20.38;34.83;101205.53;2168260;40;116075;-56
2021/04/30 03:48:54;;;;;;;;;;;;;;;20.37;35.20;101210.31;2164158;40;115584;-57
2021/04/30 03:50:25;;;;;;;;;;;;;;;20.36;34.99;101205.81;2164727;40;115669;-56
2021/04/30 03:51:57;;;;;;;;;;;;;;;20.37;35.24;101209.47;2170325;40;116134;-54
2021/04/30 03:53:28;;;;;;;;;;;;;;;20.36;35.04;101205.81;2163219;40;115582;-55
2021/04/30 03:55:01;;;;;;;;;;;;;;;20.35;34.79;101204.16;2166982;40;115661;-53
2021/04/30 03:56:32;;;;;;;;;;;;;;;20.35;34.65;101203.34;2166958;40;115686;-57
2021/04/30 03:58:03;;;;;;;;;;;;;;;20.36;34.69;101205.00;2167908;40;115646;-54
2021/04/30 03:59:35;;;;;;;;;;;;;;;20.33;34.74;101202.78;2167648;40;116241;-55
2021/04/30 04:01:06;;;;;;;;;;;;;;;20.32;34.55;101201.13;2168393;40;116046;-55
2021/04/30 04:02:38;;;;;;;;;;;;;;;20.32;34.45;101199.16;2165188;40;115675;-54
2021/04/30 04:04:09;;;;;;;;;;;;;;;20.32;34.72;101201.13;2175382;40;115740;-55
2021/04/30 04:05:40;;;;;;;;;;;;;;;20.28;34.99;101206.47;2169116;40;114362;-54
2021/04/30 04:07:12;;;;;;;;;;;;;;;20.30;34.82;101200.59;2168273;40;114076;-56
2021/04/30 04:08:43;;;;;;;;;;;;;;;20.29;34.85;101202.53;2171058;40;114086;-54
2021/04/30 04:10:14;;;;;;;;;;;;;;;20.29;34.58;101204.50;2165829;40;114147;-57
2021/04/30 04:11:46;;;;;;;;;;;;;;;20.27;34.93;101206.75;2167696;40;113646;-56
2021/04/30 04:13:18;;;;;;;;;;;;;;;20.26;34.50;101205.13;2167232;40;114018;-55
2021/04/30 04:14:50;;;;;;;;;;;;;;;20.23;34.79;101208.50;2162915;40;113896;-57
2021/04/30 04:16:22;;;;;;;;;;;;;;;20.22;35.05;101204.84;2167611;40;114164;-56
2021/04/30 04:17:53;;;;;;;;;;;;;;;20.26;34.87;101213.53;2168204;40;114439;-58
2021/04/30 04:19:25;;;;;;;;;;;;;;;20.31;35.05;101210.66;2167769;40;114456;-56
2021/04/30 04:20:56;;;;;;;;;;;;;;;20.28;34.77;101214.88;2166851;40;114031;-57
2021/04/30 04:22:28;;;;;;;;;;;;;;;20.27;34.88;101215.19;2167849;40;113943;-56
2021/04/30 04:24:00;;;;;;;;;;;;;;;20.27;34.84;101212.38;2167990;40;114916;-55
2021/04/30 04:25:31;;;;;;;;;;;;;;;20.27;35.00;101215.19;2170341;40;114461;-56
2021/04/30 04:27:02;;;;;;;;;;;;;;;20.31;34.94;101219.91;2166660;40;114539;-56
2021/04/30 04:28:34;;;;;;;;;;;;;;;20.34;35.37;101224.13;2167989;40;115272;-56
2021/04/30 04:30:08;;;;;;;;;;;;;;;20.36;35.64;101222.66;2166797;40;115315;-57
2021/04/30 04:31:39;;;;;;;;;;;;;;;20.37;35.65;101217.88;2164903;40;115208;-56
2021/04/30 04:33:11;;;;;;;;;;;;;;;20.37;35.74;101213.13;2166201;40;115391;-55
2021/04/30 04:34:43;;;;;;;;;;;;;;;20.37;36.19;101221.53;2168040;40;114990;-58
2021/04/30 04:36:14;;;;;;;;;;;;;;;20.40;35.89;101220.09;2166168;40;114587;-56
2021/04/30 04:37:47;;;;;;;;;;;;;;;20.41;36.13;101219.78;2166482;40;115020;-56
2021/04/30 04:39:18;;;;;;;;;;;;;;;20.45;36.20;101222.00;2173490;40;115073;-57
2021/04/30 04:40:50;;;;;;;;;;;;;;;20.46;36.11;101216.09;2155862;40;113961;-56
2021/04/30 04:42:22;;;;;;;;;;;;;;;20.51;36.28;101229.22;2161182;40;115043;-54
2021/04/30 04:43:54;;;;;;;;;;;;;;;20.54;36.06;101229.44;2168169;40;114869;-56
2021/04/30 04:45:26;;;;;;;;;;;;;;;20.57;36.17;101237.28;2169062;40;115413;-57
2021/04/30 04:46:57;;;;;;;;;;;;;;;20.60;36.47;101233.84;2170318;40;114958;-55
2021/04/30 04:48:28;;;;;;;;;;;;;;;20.65;36.17;101236.59;2164024;40;114776;-56
2021/04/30 04:51:34;;;;;;;;;;;;;;;20.73;35.83;101238.72;2163665;40;115641;-58
2021/04/30 04:53:06;;;;;;;;;;;;;;;20.77;36.50;101242.59;2167082;40;116363;-57
2021/04/30 04:54:39;;;;;;;;;;;;;;;20.81;36.82;101232.41;2161462;40;115474;-56
2021/04/30 04:56:13;;;;;;;;;;;;;;;20.86;36.80;101237.97;2161261;40;115822;-56
2021/04/30 04:57:44;;;;;;;;;;;;;;;20.91;36.58;101241.81;2169646;40;115631;-55
2021/04/30 04:59:17;;;;;;;;;;;;;;;20.94;36.61;101244.84;2169861;40;115693;-56
2021/04/30 05:00:48;;;;;;;;;;;;;;;20.99;36.18;101241.97;2164894;40;115590;-58
2021/04/30 05:02:19;;;;;;;;;;;;;;;21.04;35.99;101247.53;2167017;40;115940;-55
2021/04/30 05:03:51;;;;;;;;;;;;;;;21.09;35.98;101252.22;2168632;40;115650;-57
2021/04/30 05:05:23;;;;;;;;;;;;;;;21.12;36.30;101254.44;2167374;40;115627;-58
2021/04/30 05:06:55;;;;;;;;;;;;;;;21.15;35.81;101246.25;2167928;40;115618;-58
2021/04/30 05:08:26;;;;;;;;;;;;;;;21.20;36.03;101249.00;2169582;40;115676;-56
2021/04/30 05:09:59;;;;;;;;;;;;;;;21.23;35.87;101251.19;2161427;40;114133;-56
2021/04/30 05:11:30;;;;;;;;;;;;;;;21.28;35.46;101251.09;2166780;40;114235;-56
2021/04/30 05:13:02;;;;;;;;;;;;;;;21.33;35.60;101263.41;2167992;40;114081;-53
2021/04/30 05:14:33;;;;;;;;;;;;;;;21.36;35.67;101260.81;2167945;40;114084;-59
2021/04/30 05:16:13;;;;;;;;;;;;;;;21.40;35.62;101261.03;2168628;40;114254;-60
2021/04/30 05:17:44;;;;;;;;;;;;;;;21.44;35.30;101260.09;2168869;40;114365;-57
2021/04/30 05:19:16;;;;;;;;;;;;;;;21.48;35.15;101261.19;2168565;40;113671;-55
2021/04/30 05:20:47;;;;;;;;;;;;;;;21.51;35.20;101260.56;2167738;40;114340;-55
2021/04/30 05:22:19;;;;;;;;;;;;;;;21.54;35.21;101259.94;2172606;40;113680;-55
2021/04/30 05:23:57;;;;;;;;;;;;;;;21.59;35.17;101259.84;2168506;40;114782;-56
2021/04/30 05:25:28;;;;;;;;;;;;;;;21.62;34.70;101261.22;2167587;40;114251;-58
2021/04/30 05:26:59;;;;;;;;;;;;;;;21.66;35.08;101262.28;2161934;40;113975;-57
2021/04/30 05:28:32;;;;;;;;;;;;;;;21.69;34.48;101270.91;2166813;40;113794;-57
2021/04/30 05:30:06;;;;;;;;;;;;;;;21.72;34.72;101259.03;2174152;40;114057;-55
2021/04/30 05:31:38;;;;;;;;;;;;;;;21.77;34.65;101262.91;2165094;40;114070;-56
2021/04/30 05:33:10;;;;;;;;;;;;;;;21.80;34.63;101267.94;2164587;40;115261;-57
2021/04/30 05:34:42;;;;;;;;;;;;;;;21.82;34.40;101269.28;2166298;40;114909;-60
2021/04/30 05:36:13;;;;;;;;;;;;;;;21.84;34.59;101258.56;2164767;40;114911;-54
2021/04/30 05:37:45;;;;;;;;;;;;;;;21.88;34.23;101270.88;2167682;40;114956;-57
2021/04/30 05:39:16;;;;;;;;;;;;;;;21.91;34.29;101267.41;2167558;40;114803;-56
2021/04/30 05:40:47;;;;;;;;;;;;;;;21.94;34.27;101266.00;2167220;40;114137;-53
2021/04/30 05:42:20;;;;;;;;;;;;;;;21.97;34.42;101268.19;2172060;40;115705;-55
2021/04/30 05:43:51;;;;;;;;;;;;;;;22.00;34.25;101271.22;2169187;40;114812;-56
2021/04/30 05:45:23;;;;;;;;;;;;;;;22.03;35.25;101270.59;2169101;40;114579;-57
2021/04/30 05:46:54;;;;;;;;;;;;;;;22.06;35.30;101261.53;2166541;40;114198;-55
2021/04/30 05:48:26;;;;;;;;;;;;;;;22.09;34.70;101265.69;2166790;40;115087;-57
2021/04/30 05:49:58;;;;;;;;;;;;;;;22.12;34.47;101270.72;2167551;40;114759;-55
2021/04/30 05:51:29;;;;;;;;;;;;;;;22.15;34.92;101273.75;2167139;40;114925;-55
2021/04/30 05:53:02;;;;;;;;;;;;;;;22.19;34.82;101268.31;2165672;40;115184;-58
2021/04/30 05:54:33;;;;;;;;;;;;;;;22.21;34.50;101268.84;2165009;40;115565;-54
2021/04/30 05:56:05;;;;;;;;;;;;;;;22.26;34.75;101276.38;2166132;40;116155;-57
2021/04/30 05:57:37;;;;;;;;;;;;;;;22.29;34.60;101272.91;2166525;40;115767;-54
2021/04/30 05:59:08;;;;;;;;;;;;;;;22.31;34.13;101277.06;2166196;40;115918;-59
2021/04/30 06:00:39;;;;;;;;;;;;;;;22.34;34.93;101268.03;2166465;40;115587;-57
2021/04/30 06:02:12;;;;;;;;;;;;;;;22.37;34.34;101267.38;2167272;40;115490;-58
2021/04/30 06:03:43;;;;;;;;;;;;;;;22.39;34.51;101270.72;2172167;40;115737;-56
2021/04/30 06:05:15;;;;;;;;;;;;;;;22.42;34.60;101274.88;2168843;40;116044;-57
2021/04/30 06:06:50;;;;;;;;;;;;;;;22.45;34.66;101268.63;2168012;40;115878;-56
2021/04/30 06:08:23;;;;;;;;;;;;;;;22.47;34.66;101264.38;2166534;40;115565;-57
2021/04/30 06:09:55;;;;;;;;;;;;;;;22.48;34.78;101273.66;2167535;40;115679;-58
2021/04/30 06:11:26;;;;;;;;;;;;;;;22.50;34.76;101272.16;2165444;40;115559;-57
2021/04/30 06:13:00;;;;;;;;;;;;;;;22.55;34.45;101277.69;2166625;40;115566;-54
2021/04/30 06:14:33;;;;;;;;;;;;;;;22.57;34.36;101275.41;2170590;40;115931;-54
2021/04/30 06:16:05;;;;;;;;;;;;;;;22.59;34.14;101273.09;2165900;40;113629;-57
2021/04/30 06:17:37;;;;;;;;;;;;;;;22.61;34.02;101270.81;2168163;40;113976;-55
2021/04/30 06:19:09;;;;;;;;;;;;;;;22.64;34.53;101269.34;2167116;40;114049;-57
2021/04/30 06:20:40;;;;;;;;;;;;;;;22.67;34.14;101270.72;2161698;40;114429;-55
2021/04/30 06:22:12;;;;;;;;;;;;;;;22.71;34.68;101277.41;2166102;40;113960;-56
2021/04/30 06:23:43;;;;;;;;;;;;;;;22.73;34.33;101275.94;2171044;40;113968;-57
2021/04/30 06:25:14;;;;;;;;;;;;;;;22.79;34.46;101279.47;2163139;40;113752;-55
2021/04/30 06:26:46;;;;;;;;;;;;;;;22.80;33.63;101272.69;2165139;40;114077;-57
2021/04/30 06:28:19;;;;;;;;;;;;;;;22.83;33.85;101274.88;2159835;40;113681;-57
2021/04/30 06:29:51;;;;;;;;;;;;;;;22.85;33.59;101272.59;2166157;40;115222;-56
2021/04/30 06:31:23;;;;;;;;;;;;;;;22.87;33.71;101275.91;2166500;40;113992;-55
2021/04/30 06:32:55;;;;;;;;;;;;;;;22.89;33.27;101282.06;2165841;40;114859;-54
2021/04/30 06:34:26;;;;;;;;;;;;;;;22.90;33.40;101275.25;2172031;40;113660;-54
2021/04/30 06:35:59;;;;;;;;;;;;;;;22.91;33.31;101280.59;2169406;40;114310;-58
2021/04/30 06:37:31;;;;;;;;;;;;;;;22.92;33.18;101275.78;2168407;40;115081;-55
2021/04/30 06:39:03;;;;;;;;;;;;;;;22.93;33.03;101277.47;2161042;40;114800;-57
2021/04/30 06:40:35;;;;;;;;;;;;;;;22.93;33.00;101274.66;2165669;40;114024;-55
2021/04/30 06:42:07;;;;;;;;;;;;;;;22.94;32.87;101276.31;2167847;40;115410;-56
2021/04/30 06:45:14;;;;;;;;;;;;;;;22.94;32.77;101284.78;2165845;40;115500;-55
2021/04/30 06:46:46;;;;;;;;;;;;;;;22.95;32.66;101275.16;2164423;40;114930;-56
2021/04/30 06:48:17;;;;;;;;;;;;;;;22.94;32.57;101279.16;2165613;40;115172;-55
2021/04/30 06:49:52;;;;;;;;;;;;;;;22.94;32.58;101284.78;2167825;40;114906;-53
2021/04/30 06:51:23;;;;;;;;;;;;;;;22.94;32.58;101285.59;2164323;40;114928;-57
2021/04/30 06:52:55;;;;;;;;;;;;;;;22.93;32.65;101286.75;2168173;40;114241;-56
2021/04/30 06:54:29;;;;;;;;;;;;;;;22.89;32.60;101288.56;2167321;40;114839;-56
2021/04/30 06:56:00;;;;;;;;;;;;;;;22.62;30.93;101280.09;2173170;40;115316;-55
2021/04/30 06:57:33;;;;;;;;;;;;;;;22.25;28.74;101281.16;2171592;40;115919;-55
2021/04/30 06:59:08;;;;;;;;;;;;;;;21.84;28.11;101285.84;2166451;40;116155;-54
2021/04/30 07:00:39;;;;;;;;;;;;;;;21.54;27.89;101276.81;2160357;40;115577;-53
2021/04/30 07:02:10;;;;;;;;;;;;;;;21.40;28.07;101284.34;2166109;40;115402;-54
2021/04/30 07:03:45;;;;;;;;;;;;;;;21.32;27.62;101285.06;2166887;40;114766;-58
2021/04/30 07:05:18;;;;;;;;;;;;;;;21.04;28.11;101281.22;2166370;40;115573;-57
2021/04/30 07:06:49;;;;;;;;;;;;;;;21.07;28.18;101279.81;2167135;40;115885;-55
2021/04/30 07:08:22;;;;;;;;;;;;;;;21.05;28.13;101284.88;2162420;40;115078;-54
2021/04/30 07:09:54;;;;;;;;;;;;;;;20.99;28.01;101286.91;2163288;40;115633;-55
2021/04/30 07:11:26;;;;;;;;;;;;;;;20.77;27.98;101284.72;2166362;40;115688;-53
2021/04/30 07:12:57;;;;;;;;;;;;;;;20.75;28.09;101292.63;2168384;40;116178;-54
2021/04/30 07:14:29;;;;;;;;;;;;;;;20.49;28.22;101282.03;2167896;40;116069;-55
2021/04/30 07:16:01;;;;;;;;;;;;;;;20.48;28.49;101289.59;2167981;40;115781;-54
2021/04/30 07:17:32;;;;;;;;;;;;;;;20.32;28.52;101276.88;2168082;40;115945;-53
2021/04/30 07:19:04;;;;;;;;;;;;;;;20.22;28.44;101288.19;2168207;40;116637;-54
2021/04/30 07:20:35;;;;;;;;;;;;;;;20.12;28.78;101288.31;2162760;40;114963;-57
2021/04/30 07:22:09;;;;;;;;;;;;;;;20.06;28.81;101289.50;2164835;40;113826;-55
2021/04/30 07:23:43;;;;;;;;;;;;;;;19.92;28.66;101287.41;2159374;40;114253;-55
2021/04/30 07:25:14;;;;;;;;;;;;;;;19.81;28.92;101287.78;2166066;40;113781;-58
2021/04/30 07:26:45;;;;;;;;;;;;;;;19.78;28.80;101285.56;2160852;40;114643;-54
2021/04/30 07:28:17;;;;;;;;;;;;;;;19.64;28.77;101287.41;2165781;40;113777;-54
2021/04/30 07:29:49;;;;;;;;;;;;;;;19.35;29.08;101285.34;2166863;40;113834;-55
2021/04/30 07:31:23;;;;;;;;;;;;;;;19.41;29.10;101288.97;2170646;40;113926;-54
2021/04/30 07:32:54;;;;;;;;;;;;;;;19.54;28.77;101288.31;2159902;40;114142;-56
2021/04/30 07:34:41;;;;;;;;;;;;;;;19.37;29.18;101288.72;2164597;40;116145;-55
2021/04/30 07:36:13;;;;;;;;;;;;;;;19.45;28.80;101288.09;2165519;40;113745;-56
2021/04/30 07:37:45;;;;;;;;;;;;;;;19.50;28.78;101287.22;2167744;40;113921;-56
2021/04/30 07:39:16;;;;;;;;;;;;;;;19.48;28.67;101289.50;2168578;40;113863;-56
2021/04/30 07:40:49;;;;;;;;;;;;;;;19.44;28.83;101296.84;2165718;40;113787;-56
2021/04/30 07:42:20;;;;;;;;;;;;;;;19.42;28.70;101294.28;2172955;40;113762;-53
2021/04/30 07:43:52;;;;;;;;;;;;;;;19.36;28.92;101289.00;2173579;40;115731;-54
2021/04/30 07:45:25;;;;;;;;;;;;;;;19.36;28.87;101294.59;2169040;40;114903;-56
2021/04/30 07:46:57;;;;;;;;;;;;;;;19.45;28.79;101299.31;2162830;40;114912;-54
2021/04/30 07:48:30;;;;;;;;;;;;;;;19.39;28.66;101302.44;2167752;40;114958;-55
2021/04/30 07:50:04;;;;;;;;;;;;;;;19.41;28.68;101291.75;2160837;40;114087;-55